Time;durP1;ratioP1;P1;durP2;ratioP2;P2;SDS_P1;SDS_P2;PMS_P1;PMS_P2;Temp;Humidity;BMP_temperature;BMP_pressure;BME280_temperature;BME280_humidity;BME280_pressure;Samples;Min_cycle;Max_cycle;Signal;HPM_P1;HPM_P2
2021/01/23 00:00:41;;;;;;;6.97;5.50;;;;;;;;;;5027495;28;20440;-96
2021/01/23 00:03:08;;;;;;;5.73;5.10;;;;;;;;;;5104108;23;20481;-96
2021/01/23 00:05:35;;;;;;;7.13;5.73;;;;;;;;;;5096643;23;20511;-92
2021/01/23 00:08:40;;;;;;;8.83;5.30;;;;;;;;;;5047793;28;20462;-96
2021/01/23 00:11:08;;;;;;;6.63;5.20;;;;;;;;;;5067381;28;20450;-96
2021/01/23 00:13:34;;;;;;;8.63;6.20;;;;;;;;;;5069673;28;20480;-96
2021/01/23 00:16:01;;;;;;;7.23;5.63;;;;;;;;;;5049350;28;20478;-96
2021/01/23 00:18:27;;;;;;;7.37;6.20;;;;;;;;;;5060179;28;20459;-94
2021/01/23 00:20:53;;;;;;;5.43;4.73;;;;;;;;;;5062187;28;20458;-96
2021/01/23 00:23:19;;;;;;;5.80;5.13;;;;;;;;;;5068218;28;20445;-93
2021/01/23 00:25:49;;;;;;;6.60;5.00;;;;;;;;;;5063669;28;20453;-95
2021/01/23 00:31:05;;;;;;;6.30;4.80;;;;;;;;;;4951734;28;20493;-92
2021/01/23 00:33:31;;;;;;;8.97;5.60;;;;;;;;;;4967299;23;20493;-96
2021/01/23 00:36:03;;;;;;;5.63;5.03;;;;;;;;;;5008122;23;20484;-96
2021/01/23 00:38:30;;;;;;;7.20;4.80;;;;;;;;;;5022372;28;20464;-96
2021/01/23 00:40:56;;;;;;;6.37;5.00;;;;;;;;;;5014067;28;20456;-91
2021/01/23 00:43:22;;;;;;;5.70;5.13;;;;;;;;;;5029375;28;20485;-94
2021/01/23 00:45:48;;;;;;;6.23;5.00;;;;;;;;;;5025512;28;20515;-95
2021/01/23 00:48:15;;;;;;;7.57;4.90;;;;;;;;;;5014323;28;20458;-95
2021/01/23 00:50:41;;;;;;;7.53;5.10;;;;;;;;;;5016741;28;20464;-92
2021/01/23 00:53:07;;;;;;;5.83;5.23;;;;;;;;;;5012758;28;20473;-96
2021/01/23 00:55:35;;;;;;;6.90;5.30;;;;;;;;;;5017404;28;20517;-96
2021/01/23 00:58:03;;;;;;;6.50;5.13;;;;;;;;;;5020749;28;20479;-96
2021/01/23 01:00:29;;;;;;;5.53;4.83;;;;;;;;;;5014539;28;20466;-95
2021/01/23 01:02:59;;;;;;;6.03;4.90;;;;;;;;;;5038783;23;20499;-96
2021/01/23 01:05:40;;;;;;;5.77;5.10;;;;;;;;;;5016482;28;20476;-94
2021/01/23 01:08:07;;;;;;;5.87;5.07;;;;;;;;;;5014881;28;20445;-94
2021/01/23 01:10:33;;;;;;;7.10;5.10;;;;;;;;;;5009858;28;20442;-95
2021/01/23 01:12:59;;;;;;;6.53;5.13;;;;;;;;;;5006336;28;20475;-92
2021/01/23 01:15:25;;;;;;;7.77;5.20;;;;;;;;;;5015224;28;20444;-91
2021/01/23 01:17:51;;;;;;;7.50;5.50;;;;;;;;;;5015829;28;20514;-87
2021/01/23 01:20:17;;;;;;;5.70;5.20;;;;;;;;;;5017946;28;20472;-96
2021/01/23 01:22:43;;;;;;;5.50;5.00;;;;;;;;;;5022098;28;20459;-92
2021/01/23 01:25:10;;;;;;;6.60;5.20;;;;;;;;;;5016732;28;20480;-95
2021/01/23 01:27:36;;;;;;;5.90;4.70;;;;;;;;;;5006799;28;20460;-95
2021/01/23 01:30:03;;;;;;;5.43;4.63;;;;;;;;;;5014991;28;20453;-93
2021/01/23 01:32:29;;;;;;;7.40;4.90;;;;;;;;;;5020208;28;20525;-94
2021/01/23 01:34:55;;;;;;;5.20;4.70;;;;;;;;;;5030665;28;21026;-93
2021/01/23 01:37:24;;;;;;;5.90;5.13;;;;;;;;;;5017569;28;20511;-96
2021/01/23 01:40:00;;;;;;;12.47;5.43;;;;;;;;;;5012864;28;20464;-96
2021/01/23 01:44:54;;;;;;;5.13;4.63;;;;;;;;;;5061619;23;20519;-94
2021/01/23 01:47:20;;;;;;;10.20;6.40;;;;;;;;;;5007891;28;20455;-90
2021/01/23 01:49:46;;;;;;;6.60;5.13;;;;;;;;;;5002005;28;20484;-96
2021/01/23 01:52:13;;;;;;;10.13;5.63;;;;;;;;;;5008262;28;20465;-94
2021/01/23 01:54:40;;;;;;;6.23;5.60;;;;;;;;;;5003299;28;20488;-93
2021/01/23 01:57:06;;;;;;;9.70;5.13;;;;;;;;;;5004749;28;20449;-93
2021/01/23 01:59:32;;;;;;;5.83;5.23;;;;;;;;;;5005714;28;20464;-95
2021/01/23 02:02:09;;;;;;;7.97;6.00;;;;;;;;;;5006232;28;20464;-96
2021/01/23 02:04:40;;;;;;;7.20;5.37;;;;;;;;;;5012683;28;20476;-96
2021/01/23 02:07:17;;;;;;;8.80;6.17;;;;;;;;;;5105145;23;20505;-96
2021/01/23 02:10:01;;;;;;;6.53;5.57;;;;;;;;;;4988917;28;20453;-96
2021/01/23 02:12:33;;;;;;;11.50;6.23;;;;;;;;;;4988981;28;20449;-94
2021/01/23 02:15:02;;;;;;;6.83;5.33;;;;;;;;;;4986911;28;20515;-93
2021/01/23 02:17:33;;;;;;;8.93;6.03;;;;;;;;;;4985620;28;20445;-91
2021/01/23 02:20:29;;;;;;;9.33;6.40;;;;;;;;;;4989087;28;20454;-95
2021/01/23 02:23:12;;;;;;;6.47;5.77;;;;;;;;;;4933089;29;20594;-94
2021/01/23 02:25:44;;;;;;;7.20;5.50;;;;;;;;;;4972901;28;20515;-96
2021/01/23 02:28:13;;;;;;;9.53;5.37;;;;;;;;;;4989985;28;20476;-95
2021/01/23 02:30:45;;;;;;;5.90;5.30;;;;;;;;;;4987614;28;20453;-96
2021/01/23 02:33:12;;;;;;;6.70;5.73;;;;;;;;;;4989620;28;20469;-92
2021/01/23 02:35:39;;;;;;;7.50;5.90;;;;;;;;;;4985640;28;20517;-93
2021/01/23 02:38:07;;;;;;;8.27;5.90;;;;;;;;;;4985876;28;20536;-94
2021/01/23 02:40:33;;;;;;;7.67;5.50;;;;;;;;;;4988512;28;20458;-90
2021/01/23 02:42:59;;;;;;;5.77;5.17;;;;;;;;;;4985066;28;20470;-91
2021/01/23 02:45:25;;;;;;;7.20;5.87;;;;;;;;;;4982283;28;20477;-93
2021/01/23 02:47:51;;;;;;;9.20;6.17;;;;;;;;;;4986724;28;20525;-94
2021/01/23 02:50:18;;;;;;;6.20;5.60;;;;;;;;;;4985882;28;20548;-96
2021/01/23 02:52:50;;;;;;;9.57;6.60;;;;;;;;;;4988089;28;20514;-96
2021/01/23 02:55:20;;;;;;;8.93;6.87;;;;;;;;;;4984150;28;20489;-95
2021/01/23 02:57:48;;;;;;;7.63;6.77;;;;;;;;;;4986694;28;20461;-96
2021/01/23 03:00:15;;;;;;;9.13;6.40;;;;;;;;;;4986202;28;20469;-90
2021/01/23 03:05:24;;;;;;;6.40;5.77;;;;;;;;;;5010604;23;20501;-92
2021/01/23 03:07:51;;;;;;;8.67;5.80;;;;;;;;;;5039907;28;20528;-95
2021/01/23 03:10:17;;;;;;;6.07;5.47;;;;;;;;;;5033934;28;20462;-92
2021/01/23 03:12:43;;;;;;;6.57;5.70;;;;;;;;;;5030602;28;20472;-96
2021/01/23 03:15:10;;;;;;;6.73;5.40;;;;;;;;;;5044096;23;21306;-93
2021/01/23 03:17:36;;;;;;;6.10;5.00;;;;;;;;;;4993589;28;20458;-91
2021/01/23 03:20:03;;;;;;;10.10;6.40;;;;;;;;;;4996377;28;20526;-95
2021/01/23 03:22:29;;;;;;;8.33;5.70;;;;;;;;;;5001591;28;20473;-93
2021/01/23 03:24:55;;;;;;;6.77;6.07;;;;;;;;;;4997468;28;20456;-96
2021/01/23 03:27:21;;;;;;;8.13;6.30;;;;;;;;;;5000375;28;20454;-92
2021/01/23 03:29:47;;;;;;;10.50;6.60;;;;;;;;;;5007138;28;20533;-94
2021/01/23 03:32:13;;;;;;;6.70;6.00;;;;;;;;;;4980985;28;20489;-94
2021/01/23 03:34:40;;;;;;;7.47;6.17;;;;;;;;;;4977975;28;20529;-93
2021/01/23 03:37:06;;;;;;;5.93;5.30;;;;;;;;;;4994343;28;20449;-96
2021/01/23 03:39:34;;;;;;;8.10;5.70;;;;;;;;;;4991427;28;20442;-91
2021/01/23 03:42:00;;;;;;;12.03;7.00;;;;;;;;;;4983992;28;20532;-91
2021/01/23 03:44:26;;;;;;;7.07;5.60;;;;;;;;;;4982026;28;20465;-93
2021/01/23 03:46:52;;;;;;;7.27;5.70;;;;;;;;;;4996288;28;20445;-95
2021/01/23 03:49:20;;;;;;;6.83;6.00;;;;;;;;;;4993561;28;20465;-95
2021/01/23 03:51:46;;;;;;;7.67;5.73;;;;;;;;;;4982097;28;20461;-92
2021/01/23 03:54:13;;;;;;;7.70;5.83;;;;;;;;;;4992754;28;20496;-96
2021/01/23 03:56:40;;;;;;;5.90;5.30;;;;;;;;;;4988485;28;20457;-93
2021/01/23 03:59:07;;;;;;;8.00;6.23;;;;;;;;;;4983726;28;20446;-95
2021/01/23 04:01:33;;;;;;;7.50;6.17;;;;;;;;;;4981300;28;20466;-93
2021/01/23 04:04:01;;;;;;;11.17;6.20;;;;;;;;;;4976101;28;20554;-96
2021/01/23 04:06:27;;;;;;;7.60;6.00;;;;;;;;;;4991436;28;20457;-95
2021/01/23 04:08:53;;;;;;;6.40;5.77;;;;;;;;;;4994105;28;20445;-96
2021/01/23 04:11:19;;;;;;;8.17;5.70;;;;;;;;;;4987724;28;20551;-95
2021/01/23 04:13:46;;;;;;;8.37;5.80;;;;;;;;;;4990982;28;20495;-96
2021/01/23 04:16:12;;;;;;;9.33;5.53;;;;;;;;;;5002637;28;20496;-96
2021/01/23 04:18:38;;;;;;;5.37;4.73;;;;;;;;;;4997181;28;20448;-96
2021/01/23 04:21:05;;;;;;;6.50;5.30;;;;;;;;;;4998241;28;20456;-91
2021/01/23 04:23:32;;;;;;;7.07;5.63;;;;;;;;;;4989675;28;20465;-94
2021/01/23 04:25:58;;;;;;;7.10;5.60;;;;;;;;;;4993840;28;20465;-93
2021/01/23 04:28:24;;;;;;;7.13;5.57;;;;;;;;;;4986849;28;20986;-94
2021/01/23 04:30:51;;;;;;;7.10;5.20;;;;;;;;;;4977620;28;20484;-96
2021/01/23 04:33:19;;;;;;;6.53;5.70;;;;;;;;;;4993566;28;20454;-96
2021/01/23 04:35:45;;;;;;;7.27;5.30;;;;;;;;;;4988194;28;20454;-93
2021/01/23 04:38:11;;;;;;;7.20;5.80;;;;;;;;;;4986548;28;21132;-95
2021/01/23 04:40:37;;;;;;;6.40;5.70;;;;;;;;;;4985904;28;20450;-96
2021/01/23 04:43:03;;;;;;;5.30;4.80;;;;;;;;;;4988652;28;20461;-96
2021/01/23 04:45:31;;;;;;;6.70;5.53;;;;;;;;;;5051282;23;20460;-96
2021/01/23 04:47:59;;;;;;;8.20;4.80;;;;;;;;;;5031264;28;20450;-94
2021/01/23 04:50:25;;;;;;;6.83;4.73;;;;;;;;;;5027156;28;20466;-92
2021/01/23 04:52:51;;;;;;;5.67;5.10;;;;;;;;;;5024336;28;20461;-95
2021/01/23 04:55:17;;;;;;;6.17;4.50;;;;;;;;;;5026546;28;20503;-91
2021/01/23 04:57:44;;;;;;;7.40;4.57;;;;;;;;;;5026931;28;20456;-96
2021/01/23 05:00:10;;;;;;;5.23;4.73;;;;;;;;;;5025485;28;20464;-95
2021/01/23 05:02:36;;;;;;;6.67;5.03;;;;;;;;;;5026708;28;20964;-95
2021/01/23 05:05:04;;;;;;;5.50;4.60;;;;;;;;;;5024930;28;20453;-94
2021/01/23 05:07:31;;;;;;;6.80;5.10;;;;;;;;;;5016439;28;20451;-93
2021/01/23 05:09:58;;;;;;;8.17;5.47;;;;;;;;;;5027853;28;20482;-95
2021/01/23 05:12:32;;;;;;;7.97;5.53;;;;;;;;;;5025889;28;20444;-96
2021/01/23 05:14:58;;;;;;;9.27;5.30;;;;;;;;;;5027009;28;20499;-95
2021/01/23 05:17:24;;;;;;;5.77;4.70;;;;;;;;;;5025723;28;20470;-92
2021/01/23 05:19:50;;;;;;;7.07;5.77;;;;;;;;;;5022973;28;20963;-93
2021/01/23 05:22:47;;;;;;;7.30;4.80;;;;;;;;;;5029129;28;20516;-96
2021/01/23 05:25:14;;;;;;;6.63;5.30;;;;;;;;;;5026409;28;20468;-90
2021/01/23 05:27:46;;;;;;;7.80;5.13;;;;;;;;;;5031987;28;20439;-95
2021/01/23 05:30:12;;;;;;;6.50;5.80;;;;;;;;;;5015381;28;20474;-96
2021/01/23 05:32:38;;;;;;;7.07;5.37;;;;;;;;;;5028712;28;20448;-95
2021/01/23 05:35:12;;;;;;;6.83;5.37;;;;;;;;;;5023203;28;20495;-94
2021/01/23 05:37:38;;;;;;;5.80;5.10;;;;;;;;;;5028427;28;20475;-95
2021/01/23 05:40:05;;;;;;;5.73;5.17;;;;;;;;;;5019514;28;20487;-96
2021/01/23 05:42:40;;;;;;;6.57;4.97;;;;;;;;;;5022815;28;20448;-95
2021/01/23 05:45:07;;;;;;;8.00;4.87;;;;;;;;;;5025208;28;20455;-93
2021/01/23 05:47:33;;;;;;;6.27;4.57;;;;;;;;;;5026187;28;20456;-95
2021/01/23 05:50:00;;;;;;;6.37;4.73;;;;;;;;;;5026948;28;20452;-93
2021/01/23 05:52:27;;;;;;;5.97;4.60;;;;;;;;;;5026117;28;20462;-96
2021/01/23 05:54:53;;;;;;;5.77;4.60;;;;;;;;;;5025530;28;20501;-92
2021/01/23 05:57:19;;;;;;;7.33;5.10;;;;;;;;;;5022278;28;20448;-92
2021/01/23 05:59:46;;;;;;;5.73;4.30;;;;;;;;;;5023599;28;20463;-94
2021/01/23 06:02:13;;;;;;;6.30;5.20;;;;;;;;;;5025221;28;20453;-93
2021/01/23 06:04:42;;;;;;;4.50;4.10;;;;;;;;;;5028833;28;20464;-91
2021/01/23 06:07:08;;;;;;;4.70;4.30;;;;;;;;;;5024110;28;20507;-90
2021/01/23 06:09:35;;;;;;;9.70;5.10;;;;;;;;;;5023720;28;20455;-92
2021/01/23 06:12:01;;;;;;;6.53;4.30;;;;;;;;;;5030115;28;20464;-92
2021/01/23 06:14:37;;;;;;;5.40;4.37;;;;;;;;;;5021959;28;20493;-91
2021/01/23 06:17:07;;;;;;;5.53;4.17;;;;;;;;;;5021994;28;20482;-94
2021/01/23 06:19:42;;;;;;;5.63;4.67;;;;;;;;;;5022932;28;20476;-95
2021/01/23 06:22:09;;;;;;;5.53;4.60;;;;;;;;;;5016579;28;20444;-93
2021/01/23 06:24:50;;;;;;;8.50;4.50;;;;;;;;;;5015148;28;20460;-96
2021/01/23 06:27:16;;;;;;;6.53;4.37;;;;;;;;;;5026784;28;21276;-95
2021/01/23 06:29:43;;;;;;;7.17;4.80;;;;;;;;;;5022748;28;20511;-95
2021/01/23 06:32:24;;;;;;;5.47;4.70;;;;;;;;;;5027818;28;20486;-96
2021/01/23 06:34:52;;;;;;;5.70;5.10;;;;;;;;;;5015329;28;20491;-94
2021/01/23 06:37:25;;;;;;;8.80;4.63;;;;;;;;;;5015205;28;20459;-95
2021/01/23 06:40:11;;;;;;;5.13;4.63;;;;;;;;;;5023360;28;20821;-95
2021/01/23 06:42:38;;;;;;;5.07;3.93;;;;;;;;;;5023928;28;20448;-92
2021/01/23 06:45:25;;;;;;;5.30;4.70;;;;;;;;;;5022466;28;20468;-92
2021/01/23 06:47:52;;;;;;;5.50;4.27;;;;;;;;;;5005966;28;20465;-92
2021/01/23 06:50:31;;;;;;;5.60;4.70;;;;;;;;;;5003269;28;20453;-92
2021/01/23 06:53:06;;;;;;;4.43;4.03;;;;;;;;;;5004470;28;20459;-94
2021/01/23 06:55:45;;;;;;;5.17;4.67;;;;;;;;;;5005354;28;20501;-93
2021/01/23 06:58:23;;;;;;;5.00;3.80;;;;;;;;;;5014283;28;20461;-96
2021/01/23 07:00:50;;;;;;;8.73;4.10;;;;;;;;;;5009872;28;20462;-91
2021/01/23 07:03:16;;;;;;;4.93;4.03;;;;;;;;;;5008957;28;20472;-93
2021/01/23 07:06:01;;;;;;;5.03;4.20;;;;;;;;;;5010174;28;20470;-96
2021/01/23 07:08:29;;;;;;;4.63;3.80;;;;;;;;;;5012729;28;21024;-93
2021/01/23 07:11:11;;;;;;;3.97;3.60;;;;;;;;;;5003511;28;20502;-96
2021/01/23 07:13:37;;;;;;;5.00;4.47;;;;;;;;;;5018612;28;20458;-93
2021/01/23 07:16:07;;;;;;;8.13;4.50;;;;;;;;;;5005122;28;20463;-96
2021/01/23 07:18:33;;;;;;;4.13;3.70;;;;;;;;;;5006888;28;20458;-93
2021/01/23 07:21:01;;;;;;;4.27;3.80;;;;;;;;;;5009833;28;20523;-95
2021/01/23 07:23:28;;;;;;;4.87;4.23;;;;;;;;;;5010944;28;20458;-96
2021/01/23 07:25:58;;;;;;;5.57;4.40;;;;;;;;;;5010172;28;20455;-93
2021/01/23 07:28:24;;;;;;;8.10;4.67;;;;;;;;;;5008318;28;20540;-94
2021/01/23 07:30:50;;;;;;;5.00;4.50;;;;;;;;;;5012622;28;20468;-93
2021/01/23 07:33:28;;;;;;;7.50;4.97;;;;;;;;;;5008691;28;20477;-95
2021/01/23 07:35:54;;;;;;;7.93;4.90;;;;;;;;;;5007730;28;20450;-96
2021/01/23 07:38:22;;;;;;;6.80;4.50;;;;;;;;;;5014189;28;21724;-95
2021/01/23 07:40:52;;;;;;;5.73;4.10;;;;;;;;;;5014203;28;20462;-95
2021/01/23 07:43:20;;;;;;;4.80;4.27;;;;;;;;;;5005120;28;20450;-94
2021/01/23 07:45:57;;;;;;;4.30;3.77;;;;;;;;;;5017960;28;20994;-94
2021/01/23 07:48:39;;;;;;;5.70;4.27;;;;;;;;;;5015073;28;20459;-95
2021/01/23 07:51:05;;;;;;;4.87;3.67;;;;;;;;;;5017129;28;20467;-93
2021/01/23 07:53:32;;;;;;;4.13;3.47;;;;;;;;;;5020791;28;20533;-92
2021/01/23 07:55:59;;;;;;;6.57;3.97;;;;;;;;;;5002743;28;20447;-96
2021/01/23 07:58:26;;;;;;;5.00;3.90;;;;;;;;;;5018587;28;20455;-95
2021/01/23 08:00:52;;;;;;;3.80;3.50;;;;;;;;;;5019788;28;20465;-91
2021/01/23 08:03:34;;;;;;;5.83;3.77;;;;;;;;;;5016969;28;20481;-96
2021/01/23 08:06:00;;;;;;;5.60;3.53;;;;;;;;;;5022633;28;20467;-95
2021/01/23 08:08:38;;;;;;;4.60;4.20;;;;;;;;;;5024765;28;20529;-96
2021/01/23 08:11:07;;;;;;;4.90;3.90;;;;;;;;;;5018282;28;20469;-93
2021/01/23 08:13:35;;;;;;;4.20;3.80;;;;;;;;;;5017766;28;20459;-95
2021/01/23 08:16:11;;;;;;;3.87;3.47;;;;;;;;;;5014985;28;20492;-96
2021/01/23 08:18:37;;;;;;;3.40;3.10;;;;;;;;;;5014715;28;20450;-93
2021/01/23 08:21:14;;;;;;;3.10;2.80;;;;;;;;;;5017387;28;20488;-95
2021/01/23 08:23:41;;;;;;;3.37;2.97;;;;;;;;;;5019435;28;20509;-90
2021/01/23 08:26:13;;;;;;;3.60;2.90;;;;;;;;;;5021580;28;20962;-95
2021/01/23 08:28:42;;;;;;;3.33;3.03;;;;;;;;;;5021322;28;20476;-93
2021/01/23 08:31:12;;;;;;;3.30;3.00;;;;;;;;;;5025104;28;20461;-91
2021/01/23 08:33:38;;;;;;;4.23;3.13;;;;;;;;;;5021133;28;20470;-93
2021/01/23 08:36:05;;;;;;;4.73;3.40;;;;;;;;;;5026007;28;20451;-96
2021/01/23 08:38:31;;;;;;;4.20;3.30;;;;;;;;;;5025971;28;20458;-92
2021/01/23 08:40:57;;;;;;;3.30;2.90;;;;;;;;;;5025497;28;21008;-95
2021/01/23 08:43:24;;;;;;;3.83;3.43;;;;;;;;;;5024868;28;20523;-93
2021/01/23 08:45:51;;;;;;;4.00;3.23;;;;;;;;;;5019048;28;20457;-93
2021/01/23 08:48:21;;;;;;;5.30;2.90;;;;;;;;;;4995658;28;20460;-94
2021/01/23 08:50:47;;;;;;;3.07;2.77;;;;;;;;;;4994467;28;20454;-96
2021/01/23 08:53:13;;;;;;;5.40;2.93;;;;;;;;;;5001506;28;20483;-96
2021/01/23 08:55:40;;;;;;;5.23;3.30;;;;;;;;;;4997941;28;20495;-94
2021/01/23 08:58:06;;;;;;;5.50;2.73;;;;;;;;;;5001818;28;20450;-92
2021/01/23 09:00:32;;;;;;;5.70;3.13;;;;;;;;;;5007827;28;20588;-93
2021/01/23 09:03:00;;;;;;;3.17;2.87;;;;;;;;;;5016571;28;20479;-96
2021/01/23 09:05:26;;;;;;;4.70;3.00;;;;;;;;;;5001494;28;20450;-95
2021/01/23 09:07:52;;;;;;;3.17;2.90;;;;;;;;;;4993042;28;20444;-96
2021/01/23 09:10:20;;;;;;;3.07;2.77;;;;;;;;;;4995425;28;20548;-92
2021/01/23 09:12:46;;;;;;;2.93;2.63;;;;;;;;;;4989754;28;20560;-91
2021/01/23 09:15:15;;;;;;;2.83;2.50;;;;;;;;;;4995461;28;20483;-96
2021/01/23 09:17:44;;;;;;;4.10;2.60;;;;;;;;;;5005916;28;20483;-94
2021/01/23 09:20:11;;;;;;;3.77;2.87;;;;;;;;;;5007173;28;20451;-96
2021/01/23 09:22:37;;;;;;;3.87;2.90;;;;;;;;;;4996633;28;20473;-95
2021/01/23 09:25:05;;;;;;;3.00;2.70;;;;;;;;;;4999337;28;20454;-95
2021/01/23 09:27:43;;;;;;;3.00;2.70;;;;;;;;;;4998672;28;20457;-94
2021/01/23 09:30:09;;;;;;;4.00;2.90;;;;;;;;;;5006491;28;20464;-96
2021/01/23 09:32:37;;;;;;;3.03;2.77;;;;;;;;;;5000223;28;20441;-96
2021/01/23 09:35:04;;;;;;;2.80;2.40;;;;;;;;;;4997161;28;20517;-94
2021/01/23 09:37:31;;;;;;;3.60;3.00;;;;;;;;;;5003355;28;20458;-95
2021/01/23 09:40:00;;;;;;;3.60;2.70;;;;;;;;;;5004033;28;20465;-96
2021/01/23 09:42:29;;;;;;;5.37;3.03;;;;;;;;;;5004345;28;20457;-94
2021/01/23 09:44:55;;;;;;;6.70;2.80;;;;;;;;;;4996553;28;20465;-95
2021/01/23 09:47:22;;;;;;;3.90;2.90;;;;;;;;;;5004966;28;20487;-95
2021/01/23 09:49:48;;;;;;;3.43;3.00;;;;;;;;;;5000247;28;20487;-95
2021/01/23 09:52:16;;;;;;;3.37;2.90;;;;;;;;;;4997212;28;20462;-95
2021/01/23 09:54:44;;;;;;;4.27;3.57;;;;;;;;;;4995974;28;20516;-96
2021/01/23 09:57:10;;;;;;;3.30;3.10;;;;;;;;;;4992049;28;20457;-96
2021/01/23 09:59:47;;;;;;;3.20;2.90;;;;;;;;;;4992632;28;20534;-96
2021/01/23 10:02:40;;;;;;;4.60;3.30;;;;;;;;;;4994466;28;20464;-96
2021/01/23 10:05:09;;;;;;;4.00;3.23;;;;;;;;;;4999253;28;20477;-96
2021/01/23 10:07:37;;;;;;;3.27;2.97;;;;;;;;;;4997889;28;20464;-96
2021/01/23 10:10:03;;;;;;;3.60;3.17;;;;;;;;;;5003972;28;21356;-95
2021/01/23 10:12:38;;;;;;;3.47;2.90;;;;;;;;;;4991552;28;20454;-96
2021/01/23 10:15:05;;;;;;;3.40;3.10;;;;;;;;;;4999933;28;20546;-96
2021/01/23 10:17:31;;;;;;;3.13;2.80;;;;;;;;;;4991952;28;20461;-94
2021/01/23 10:19:57;;;;;;;3.17;2.90;;;;;;;;;;4998602;28;20477;-96
2021/01/23 10:22:23;;;;;;;2.90;2.70;;;;;;;;;;5000884;28;20453;-95
2021/01/23 10:24:50;;;;;;;3.00;2.70;;;;;;;;;;4996931;28;20814;-96
2021/01/23 10:27:16;;;;;;;4.03;3.13;;;;;;;;;;4997027;28;20446;-96
2021/01/23 10:29:43;;;;;;;3.50;3.20;;;;;;;;;;4992084;28;20471;-96
2021/01/23 10:32:17;;;;;;;3.90;2.90;;;;;;;;;;4995382;28;20530;-95
2021/01/23 10:34:44;;;;;;;3.17;2.97;;;;;;;;;;4996153;28;20518;-96
2021/01/23 10:37:12;;;;;;;4.13;2.57;;;;;;;;;;4999511;28;20457;-96
2021/01/23 10:39:42;;;;;;;3.90;2.80;;;;;;;;;;5006362;28;20445;-96
2021/01/23 10:42:39;;;;;;;3.10;2.80;;;;;;;;;;4997075;28;20445;-96
2021/01/23 10:45:08;;;;;;;4.80;3.37;;;;;;;;;;4998900;28;20541;-96
2021/01/23 10:52:48;;;;;;;3.00;2.80;;;;;;;;;;5027590;28;20452;-96
2021/01/23 10:55:33;;;;;;;2.90;2.70;;;;;;;;;;5027783;28;20492;-96
2021/01/23 10:57:59;;;;;;;5.80;3.20;;;;;;;;;;5021155;28;20456;-95
2021/01/23 11:03:27;;;;;;;3.70;2.60;;;;;;;;;;5037803;23;20576;-96
2021/01/23 11:06:02;;;;;;;3.67;2.60;;;;;;;;;;5007906;28;20459;-95
2021/01/23 11:08:28;;;;;;;3.40;3.10;;;;;;;;;;5005488;28;20465;-94
2021/01/23 11:10:59;;;;;;;3.60;3.30;;;;;;;;;;5008496;28;20439;-96
2021/01/23 11:13:32;;;;;;;4.17;3.07;;;;;;;;;;5006067;28;20441;-95
2021/01/23 11:15:59;;;;;;;3.40;3.10;;;;;;;;;;5004655;28;20472;-95
2021/01/23 11:18:25;;;;;;;3.47;3.03;;;;;;;;;;5016625;28;20507;-96
2021/01/23 11:20:52;;;;;;;3.47;3.17;;;;;;;;;;4993552;28;20603;-95
2021/01/23 11:23:18;;;;;;;4.73;3.70;;;;;;;;;;5009244;28;20449;-96
2021/01/23 11:25:44;;;;;;;4.20;2.93;;;;;;;;;;5004697;28;20457;-96
2021/01/23 11:28:11;;;;;;;3.73;2.93;;;;;;;;;;5006679;28;20468;-96
2021/01/23 11:30:43;;;;;;;3.00;2.70;;;;;;;;;;5006418;28;20451;-96
2021/01/23 11:33:14;;;;;;;3.30;2.60;;;;;;;;;;5018470;23;20500;-96
2021/01/23 11:35:41;;;;;;;5.07;3.37;;;;;;;;;;5021874;28;20503;-96
2021/01/23 11:38:08;;;;;;;3.67;3.37;;;;;;;;;;5032923;28;20464;-96
2021/01/23 11:40:35;;;;;;;3.27;3.00;;;;;;;;;;5032840;28;20446;-96
2021/01/23 11:43:05;;;;;;;6.33;3.37;;;;;;;;;;5025016;28;20444;-96
2021/01/23 11:45:31;;;;;;;3.17;2.90;;;;;;;;;;5028434;28;20460;-96
2021/01/23 11:47:57;;;;;;;3.77;3.40;;;;;;;;;;5037047;28;20797;-97
2021/01/23 11:50:36;;;;;;;5.10;3.50;;;;;;;;;;5028111;28;20845;-96
2021/01/23 11:53:04;;;;;;;4.23;3.40;;;;;;;;;;5022570;28;20450;-96
2021/01/23 11:55:32;;;;;;;7.13;3.57;;;;;;;;;;5028335;28;20512;-96
2021/01/23 11:58:00;;;;;;;3.53;3.03;;;;;;;;;;5027622;28;20451;-96
2021/01/23 12:00:52;;;;;;;3.13;2.83;;;;;;;;;;5032151;28;20447;-94
2021/01/23 12:03:33;;;;;;;3.43;3.13;;;;;;;;;;5027129;28;20458;-96
2021/01/23 12:06:01;;;;;;;5.43;3.30;;;;;;;;;;5026556;28;20490;-96
2021/01/23 12:08:30;;;;;;;5.43;3.47;;;;;;;;;;5010985;28;20425;-96
2021/01/23 12:10:56;;;;;;;3.13;2.93;;;;;;;;;;5027956;28;20460;-95
2021/01/23 12:13:22;;;;;;;3.50;3.20;;;;;;;;;;5030343;28;20838;-96
2021/01/23 12:15:48;;;;;;;3.70;3.00;;;;;;;;;;5022571;28;20488;-96
2021/01/23 12:18:14;;;;;;;3.80;2.97;;;;;;;;;;5021915;28;20458;-96
2021/01/23 12:20:41;;;;;;;3.10;2.80;;;;;;;;;;5024498;28;20456;-96
2021/01/23 12:23:06;;;;;;;5.03;3.10;;;;;;;;;;5028189;28;20454;-96
2021/01/23 12:25:36;;;;;;;3.03;2.67;;;;;;;;;;5027310;28;20444;-94
2021/01/23 12:28:02;;;;;;;4.33;3.17;;;;;;;;;;5027811;28;20444;-95
2021/01/23 12:30:30;;;;;;;3.53;2.93;;;;;;;;;;5028045;28;20452;-96
2021/01/23 12:32:56;;;;;;;4.97;3.10;;;;;;;;;;5029442;28;20482;-96
2021/01/23 12:35:22;;;;;;;5.10;3.30;;;;;;;;;;5020874;28;20501;-96
2021/01/23 12:37:49;;;;;;;3.70;3.23;;;;;;;;;;5026766;28;20456;-96
2021/01/23 12:40:27;;;;;;;5.63;3.63;;;;;;;;;;5024513;28;20451;-96
2021/01/23 12:42:54;;;;;;;5.17;3.10;;;;;;;;;;5026622;28;20447;-96
2021/01/23 12:45:20;;;;;;;6.30;3.37;;;;;;;;;;5021987;28;20468;-96
2021/01/23 12:47:48;;;;;;;4.30;3.17;;;;;;;;;;5025218;28;20522;-96
2021/01/23 12:50:15;;;;;;;11.03;3.43;;;;;;;;;;5026015;28;20443;-96
2021/01/23 12:52:44;;;;;;;8.47;2.80;;;;;;;;;;5026584;28;20444;-96
2021/01/23 12:55:12;;;;;;;4.43;3.00;;;;;;;;;;5025285;28;20477;-96
2021/01/23 12:57:39;;;;;;;3.07;2.77;;;;;;;;;;5027249;28;20448;-96
2021/01/23 13:00:10;;;;;;;4.00;2.80;;;;;;;;;;5002524;28;20449;-94
2021/01/23 13:02:36;;;;;;;3.30;2.73;;;;;;;;;;5007622;28;20491;-96
2021/01/23 13:05:05;;;;;;;2.63;2.37;;;;;;;;;;5026364;28;20463;-96
2021/01/23 13:10:05;;;;;;;2.60;2.40;;;;;;;;;;5013472;23;20487;-95
2021/01/23 13:12:31;;;;;;;2.60;2.40;;;;;;;;;;5009204;28;20232;-95
2021/01/23 13:14:57;;;;;;;3.57;2.53;;;;;;;;;;5009439;28;20579;-93
2021/01/23 13:17:24;;;;;;;2.97;2.67;;;;;;;;;;5014171;28;20512;-96
2021/01/23 13:19:52;;;;;;;4.53;3.10;;;;;;;;;;5005730;28;20445;-95
2021/01/23 13:22:18;;;;;;;2.63;2.43;;;;;;;;;;5001322;28;20457;-95
2021/01/23 13:24:44;;;;;;;2.70;2.50;;;;;;;;;;5008619;28;20452;-95
2021/01/23 13:27:20;;;;;;;2.93;2.70;;;;;;;;;;5008796;28;20449;-94
2021/01/23 13:29:47;;;;;;;5.87;3.30;;;;;;;;;;4999774;28;20469;-96
2021/01/23 13:32:13;;;;;;;5.53;2.70;;;;;;;;;;5001236;28;20542;-96
2021/01/23 13:34:43;;;;;;;5.00;3.53;;;;;;;;;;5006261;28;20491;-96
2021/01/23 13:37:09;;;;;;;3.23;2.83;;;;;;;;;;5009301;28;20460;-96
2021/01/23 13:39:41;;;;;;;2.93;2.63;;;;;;;;;;5003122;28;20464;-96
2021/01/23 13:42:08;;;;;;;3.63;3.00;;;;;;;;;;5010867;28;20456;-96
2021/01/23 13:44:39;;;;;;;3.13;2.60;;;;;;;;;;5009857;28;20463;-96
2021/01/23 13:47:07;;;;;;;4.73;2.80;;;;;;;;;;5009862;28;20445;-96
2021/01/23 13:49:34;;;;;;;2.87;2.67;;;;;;;;;;5013144;28;20465;-96
2021/01/23 13:52:01;;;;;;;3.40;2.83;;;;;;;;;;5003350;28;20504;-94
2021/01/23 13:54:29;;;;;;;3.10;2.80;;;;;;;;;;5007240;28;20480;-96
2021/01/23 13:56:56;;;;;;;6.43;2.60;;;;;;;;;;5006210;28;20459;-94
2021/01/23 13:59:22;;;;;;;2.70;2.50;;;;;;;;;;5007687;28;20453;-96
2021/01/23 14:01:51;;;;;;;3.03;2.50;;;;;;;;;;5007806;28;20463;-94
2021/01/23 14:04:20;;;;;;;3.60;2.70;;;;;;;;;;5013645;23;20492;-96
2021/01/23 14:06:46;;;;;;;3.50;2.70;;;;;;;;;;5009228;28;20448;-96
2021/01/23 14:09:26;;;;;;;3.50;3.20;;;;;;;;;;4992179;28;20445;-96
2021/01/23 14:14:39;;;;;;;3.70;2.43;;;;;;;;;;5012774;28;20472;-96
2021/01/23 14:17:05;;;;;;;4.40;2.53;;;;;;;;;;5003593;28;20452;-96
2021/01/23 14:19:31;;;;;;;5.80;3.13;;;;;;;;;;5007837;28;20475;-95
2021/01/23 14:22:01;;;;;;;4.00;3.10;;;;;;;;;;5003736;28;20577;-96
2021/01/23 14:24:29;;;;;;;4.10;3.67;;;;;;;;;;5008143;28;20459;-95
2021/01/23 14:26:56;;;;;;;6.43;3.63;;;;;;;;;;5007858;28;20456;-96
2021/01/23 14:29:35;;;;;;;4.07;3.20;;;;;;;;;;5011418;28;20446;-96
2021/01/23 14:32:01;;;;;;;5.03;3.00;;;;;;;;;;5002246;28;20491;-94
2021/01/23 14:34:29;;;;;;;6.63;4.27;;;;;;;;;;5007820;28;20512;-96
2021/01/23 14:36:56;;;;;;;4.40;3.57;;;;;;;;;;5005721;28;20456;-95
2021/01/23 14:39:25;;;;;;;5.07;3.40;;;;;;;;;;5004231;28;20448;-96
2021/01/23 14:41:52;;;;;;;4.70;3.57;;;;;;;;;;5002220;28;20527;-93
2021/01/23 14:44:25;;;;;;;6.13;3.67;;;;;;;;;;4997158;28;20460;-95
2021/01/23 14:46:51;;;;;;;5.53;3.40;;;;;;;;;;4998467;28;20459;-95
2021/01/23 14:49:17;;;;;;;4.93;3.50;;;;;;;;;;4995822;28;20482;-94
2021/01/23 14:51:43;;;;;;;4.73;3.67;;;;;;;;;;5002745;28;20456;-96
2021/01/23 14:54:09;;;;;;;6.07;3.70;;;;;;;;;;4997896;28;20456;-96
2021/01/23 14:56:36;;;;;;;6.10;3.70;;;;;;;;;;5001576;28;20443;-96
2021/01/23 14:59:06;;;;;;;6.20;3.83;;;;;;;;;;5008521;28;20456;-96
2021/01/23 15:01:37;;;;;;;4.53;3.70;;;;;;;;;;5007784;28;21070;-95
2021/01/23 15:04:05;;;;;;;7.10;3.40;;;;;;;;;;5007552;28;20448;-96
2021/01/23 15:06:31;;;;;;;6.37;3.60;;;;;;;;;;5003522;28;20447;-96
2021/01/23 15:08:57;;;;;;;3.93;3.53;;;;;;;;;;5002755;28;20498;-95
2021/01/23 15:11:27;;;;;;;17.80;12.63;;;;;;;;;;5004153;28;20578;-96
2021/01/23 15:13:53;;;;;;;7.93;6.70;;;;;;;;;;5006786;28;20451;-96